ROTAER D-AMDT 3/19

MARIO RIBEIRO ( SBMK ) / MONTES CLAROS, MG 16 42 22S/043 49 19W
AD PUB INFRAERO 5E UTC-3 VFR IFR L21 , L26 668 (2191)

12 - L6 [1] , L9 , L12 - ( 2100x45 ASPH 34/F/B/X/T L14 , L15 ) - L12 - 30

SBBS (CINDACTA 1)
COM -
RÁDIO [2] [4] 131.700
RDONAV -
NDB MCL [2] 310 1642.21S/04349.15W
CMB- [4] PF TF RFFS - CAT - 5
MET -

[2] [4] [3] (38)3229-1223 CMA 1,2,3,4,5,6,7,8,9

AIS - [3] [2] [5] (38)3229-1221

RMK -

PROCEDIMENTOS DE VOO
  1. Aceita AFIL por radiotelefonia
INFORMAÇÃO ADICIONAL
  1. OBS ACFT em vôo de instrução próximo ao AD
  2. OBS Concentração de urubus na APCH final RWY 12
CARTAS RELACIONADAS AO AERÓDROMO
  1. Cartas ver AIP MAP
COMPL -
  • [1] MEHT: 39FT
  • [2] OPR INFRAERO
  • [3] Autoatendimento
  • [4] (DLY 0800-0400)
  • [5] Para informações adicionais consultar a Sala AIS SBBH, TEL/FAX PLN: (31) 3490-2134.
TEMP (0)

Suplementos AIP (0)

NOTAM (0)

Nascer/Por do Sol

09:05

20:42


METAR

211800Z 30004KT 9999 FEW048 FEW049TCU 32/17 Q1013=

TAF

211600Z 2118/2206 VRB06KT 9999 BKN040 FEW045TCU TX33/2118Z TN22/2204ZBECMG 2118/2120 24005KT FEW040 FEW045TCUBECMG 2122/2124 07005KT TS FEW045CBBECMG 2201/2203 16005KT NSW FEW045 RMK PEJ=


Cartas (7)

ADC


IAC


SID



Rotas Preferenciais (0)